Startpagina
METAR-TAF:

METAR-TAF

Vliegvelden :

Belize City, Belize

Phillip Goldston

breedte: 17-32N, lengte: 088-18W, hoogte: 5 m

Actueel weer

Dit bericht is 8 uur en het 3 minuten geleden gemaakt, om 00:00 UTC
Wind 6 kt uit het oostzuidoosten
Temperatuur 30°C
Vochtigheid 75%
Druk 1008 hPa
Zicht 10 km of meer
Weinig wolken op 2200 ft

METAR: MZBZ 240000Z 11006KT 9999 FEW022 30/25 A2977 Q1008 NOSIG

Tijdstip: 02:03 (08:03 UTC)

Verwachting

Dit bericht is 5 uur en het 3 minuten geleden gemaakt, om 03:00 UTC
Verwachting geldig van 24 om 06 UTC tot 25 om 06 UTC
Wind 8 kt uit het oostzuidoosten
Zicht 10 km of meer
Verspreide wolken op 2400 ft

TAF: MZBZ 240300Z 2406/2506 11008KT 9999 SCT024

Waarnemingen en weersverwachtingen van meer dan 4000 vliegvelden (METAR en TAF).

De beschikbare stations zijn de gele en rode punten op de kaart.

Ga met uw muis naar het station om de naam te zien.

Klik dan om waarnemingen en weersverwachtingen te zien.

kaart wijzigen: klik op de groene knoppen met een zwart kruis om in te zoomen, op de groene knop met een streepje om uit te zoomen of op de groene pijlen voor aangrenzende kaarten.


METAR-TAF: